AYPY/POM METAR and TAF weather

Enter ICAO airport designator
Station Type Date Time Source
AYPY METAR 2021/07/30 22:00 UTC NOAA

AYPY 302200Z VRB03KT 9999 FEW005 SCT025 SCT050 26/25 Q1013


Station Type Date Time Source
AYPY Decoded METAR 2021/07/30 22:00 UTC NOAA

Moresby, Papua New Guinea (AYPY) 09-26S 147-13E 49M
Jul 30, 2021 - 06:00 PM EDT / 2021.07.30 2200 UTC
Wind: Variable at 3 MPH (3 KT):0
Visibility: greater than 7 mile(s):0
Sky conditions: partly cloudy
Temperature: 78 F (26 C)
Dew Point: 77 F (25 C)
Relative Humidity: 94%
Pressure (altimeter): 29.91 in. Hg (1013 hPa)
ob: AYPY 302200Z VRB03KT 9999 FEW005 SCT025 SCT050 26/25 Q1013
cycle: 22

Station Type Date Time Source
AYPY TAF 2021/07/30 12:09 UTC NOAA

TAF TAF AYPY 300930Z 3012/3112 15010KT 9999 SCT040 SCT140
FM301800 VRB03KT 9999 SCT040
FM302200 13007KT 9999 SCT018 BKN045 PROB30 3019/3021 00000KT 0600 FG

Example: see airport list